Time;durP1;ratioP1;P1;durP2;ratioP2;P2;SDS_P1;SDS_P2;PMS_P1;PMS_P2;Temp;Humidity;BMP_temperature;BMP_pressure;BME280_temperature;BME280_humidity;BME280_pressure;Samples;Min_cycle;Max_cycle;Signal;HPM_P1;HPM_P2
2022/01/16 00:00:16;;;;;;;;;;;8.80;51.70;;;;;;5072489;28;20307;-68
2022/01/16 00:05:24;;;;;;;;;;;9.10;50.90;;;;;;5072494;28;19916;-70
2022/01/16 00:07:50;;;;;;;;;;;9.20;50.90;;;;;;5072793;28;19908;-67
2022/01/16 00:10:19;;;;;;;;;;;9.10;51.00;;;;;;5072800;28;20410;-67
2022/01/16 00:12:48;;;;;;;;;;;9.00;51.00;;;;;;5072561;28;19917;-68
2022/01/16 00:15:18;;;;;;;;;;;9.20;50.30;;;;;;5072601;28;19917;-67
2022/01/16 00:18:21;;;;;;;;;;;9.30;49.80;;;;;;5075955;28;19912;-67
2022/01/16 00:20:36;;;;;;;;;;;9.30;49.50;;;;;;5075668;28;19908;-67
2022/01/16 00:23:05;;;;;;;;;;;9.40;49.80;;;;;;5076170;28;19915;-67
2022/01/16 00:25:31;;;;;;;;;;;9.20;50.30;;;;;;5076052;28;20364;-68
2022/01/16 00:27:56;;;;;;;;;;;9.20;50.30;;;;;;5075860;28;19915;-68
2022/01/16 00:30:22;;;;;;;;;;;9.10;50.40;;;;;;5076050;28;19908;-69
2022/01/16 00:32:47;;;;;;;;;;;9.20;49.80;;;;;;5075781;28;19946;-69
2022/01/16 00:35:13;;;;;;;;;;;9.30;49.90;;;;;;5075815;28;20279;-63
2022/01/16 00:37:40;;;;;;;;;;;9.30;50.20;;;;;;5075696;28;19954;-63
2022/01/16 00:40:06;;;;;;;;;;;9.10;50.40;;;;;;5075971;28;19908;-66
2022/01/16 00:42:32;;;;;;;;;;;9.00;50.60;;;;;;5076061;28;19909;-65
2022/01/16 00:44:57;;;;;;;;;;;9.00;51.00;;;;;;5075668;28;19943;-64
2022/01/16 00:47:23;;;;;;;;;;;9.00;50.90;;;;;;5075520;28;19908;-66
2022/01/16 00:49:48;;;;;;;;;;;9.00;51.00;;;;;;5075797;28;19916;-67
2022/01/16 00:52:14;;;;;;;;;;;9.00;51.20;;;;;;5075499;28;19991;-66
2022/01/16 00:54:39;;;;;;;;;;;8.90;51.30;;;;;;5075566;28;19917;-66
2022/01/16 00:57:05;;;;;;;;;;;8.70;51.60;;;;;;5075650;28;19909;-64
2022/01/16 00:59:30;;;;;;;;;;;8.70;51.90;;;;;;5075465;28;19919;-66
2022/01/16 01:01:56;;;;;;;;;;;8.80;51.80;;;;;;5075582;28;19932;-67
2022/01/16 01:04:22;;;;;;;;;;;8.80;51.60;;;;;;5075283;28;19909;-67
2022/01/16 01:06:49;;;;;;;;;;;8.70;51.80;;;;;;5075342;28;19962;-68
2022/01/16 01:09:16;;;;;;;;;;;8.60;51.90;;;;;;5075601;28;19909;-69
2022/01/16 01:11:45;;;;;;;;;;;8.70;51.60;;;;;;5075130;28;19932;-67
2022/01/16 01:14:21;;;;;;;;;;;8.90;51.10;;;;;;5075063;28;20245;-68
2022/01/16 01:17:00;;;;;;;;;;;8.80;51.30;;;;;;5075125;28;19916;-67
2022/01/16 01:19:32;;;;;;;;;;;8.60;51.50;;;;;;5075227;28;19912;-66
2022/01/16 01:21:57;;;;;;;;;;;8.70;51.40;;;;;;5075305;28;19908;-62
2022/01/16 01:24:23;;;;;;;;;;;8.90;50.80;;;;;;5074038;28;20246;-68
2022/01/16 01:27:17;;;;;;;;;;;9.00;50.90;;;;;;5074731;28;19916;-68
2022/01/16 01:29:39;;;;;;;;;;;8.90;51.30;;;;;;5074566;28;19915;-65
2022/01/16 01:32:05;;;;;;;;;;;9.00;51.00;;;;;;5074796;28;19929;-66
2022/01/16 01:34:31;;;;;;;;;;;8.90;51.10;;;;;;5074868;28;19927;-67
2022/01/16 01:36:56;;;;;;;;;;;8.90;51.40;;;;;;5074767;28;19912;-67
2022/01/16 01:39:23;;;;;;;;;;;8.90;51.30;;;;;;5074936;28;19909;-68
2022/01/16 01:41:51;;;;;;;;;;;8.80;51.50;;;;;;5074802;28;20010;-67
2022/01/16 01:52:43;;;;;;;;;;;8.60;52.00;;;;;;5074408;28;19935;-66
2022/01/16 01:55:09;;;;;;;;;;;8.50;52.30;;;;;;5074317;28;19916;-63
2022/01/16 01:57:34;;;;;;;;;;;8.50;52.20;;;;;;5074536;28;19919;-66
2022/01/16 02:00:00;;;;;;;;;;;8.50;52.10;;;;;;5074445;28;20045;-64
2022/01/16 02:02:30;;;;;;;;;;;8.50;52.10;;;;;;5074167;28;19908;-67
2022/01/16 02:04:56;;;;;;;;;;;8.60;52.20;;;;;;5074221;28;20284;-66
2022/01/16 02:07:21;;;;;;;;;;;8.50;51.80;;;;;;5073930;28;19913;-67
2022/01/16 02:09:47;;;;;;;;;;;8.60;52.00;;;;;;5074204;28;20383;-64
2022/01/16 02:12:12;;;;;;;;;;;8.50;52.10;;;;;;5074228;28;19923;-63
2022/01/16 02:14:55;;;;;;;;;;;8.50;52.10;;;;;;5073992;28;19916;-66
2022/01/16 02:28:25;;;;;;;;;;;8.30;53.00;;;;;;5074022;28;19950;-63
2022/01/16 02:35:51;;;;;;;;;;;8.40;52.80;;;;;;5073616;28;19917;-62
2022/01/16 02:38:16;;;;;;;;;;;8.40;52.90;;;;;;5073697;28;19909;-64
2022/01/16 02:40:47;;;;;;;;;;;8.40;53.10;;;;;;5073507;28;20340;-63
2022/01/16 02:43:15;;;;;;;;;;;8.40;53.10;;;;;;5073585;28;20314;-62
2022/01/16 02:45:46;;;;;;;;;;;8.30;53.30;;;;;;5073622;28;19912;-63
2022/01/16 02:48:11;;;;;;;;;;;8.30;53.60;;;;;;5073558;28;19978;-62
2022/01/16 02:50:37;;;;;;;;;;;8.20;53.80;;;;;;5073721;28;19936;-64
2022/01/16 02:53:08;;;;;;;;;;;8.10;54.00;;;;;;5073506;28;19909;-62
2022/01/16 02:55:34;;;;;;;;;;;8.00;54.50;;;;;;5073265;28;20377;-63
2022/01/16 02:57:59;;;;;;;;;;;7.80;54.90;;;;;;5073587;28;19915;-63
2022/01/16 03:00:25;;;;;;;;;;;7.70;55.30;;;;;;5073421;28;19951;-64
2022/01/16 03:02:51;;;;;;;;;;;7.80;55.30;;;;;;5073406;28;19909;-65
2022/01/16 03:05:16;;;;;;;;;;;7.70;55.40;;;;;;5073228;28;20335;-64
2022/01/16 03:07:43;;;;;;;;;;;7.70;55.60;;;;;;5073160;28;20566;-64
2022/01/16 03:12:54;;;;;;;;;;;7.50;56.10;;;;;;5073395;28;20007;-65
2022/01/16 03:15:20;;;;;;;;;;;7.50;56.10;;;;;;5073220;28;20410;-63
2022/01/16 03:23:09;;;;;;;;;;;7.40;56.30;;;;;;5072644;28;20270;-63
2022/01/16 03:25:34;;;;;;;;;;;7.40;56.50;;;;;;5073198;28;19951;-64
2022/01/16 03:28:00;;;;;;;;;;;7.50;56.00;;;;;;5073013;28;19908;-64
2022/01/16 03:30:25;;;;;;;;;;;7.50;56.00;;;;;;5073061;28;19955;-65
2022/01/16 03:32:51;;;;;;;;;;;7.40;56.40;;;;;;5072884;28;19924;-66
2022/01/16 03:35:16;;;;;;;;;;;7.30;56.50;;;;;;5072959;28;20428;-62
2022/01/16 03:37:42;;;;;;;;;;;7.30;56.90;;;;;;5073081;28;19909;-62
2022/01/16 03:40:10;;;;;;;;;;;7.20;57.20;;;;;;5071631;28;19908;-63
2022/01/16 03:42:37;;;;;;;;;;;7.30;57.00;;;;;;5073142;28;19908;-63
2022/01/16 03:45:03;;;;;;;;;;;7.30;56.80;;;;;;5072759;28;19962;-62
2022/01/16 03:47:29;;;;;;;;;;;7.30;57.00;;;;;;5073004;28;19955;-63
2022/01/16 03:49:54;;;;;;;;;;;7.30;57.10;;;;;;5073106;28;20302;-63
2022/01/16 03:52:20;;;;;;;;;;;7.30;56.90;;;;;;5075944;28;20323;-63
2022/01/16 03:54:46;;;;;;;;;;;7.30;57.10;;;;;;5076664;28;19924;-62
2022/01/16 03:57:11;;;;;;;;;;;7.40;56.70;;;;;;5076786;28;19947;-64
2022/01/16 03:59:37;;;;;;;;;;;7.40;56.80;;;;;;5076509;28;19908;-63
2022/01/16 04:02:04;;;;;;;;;;;7.40;56.80;;;;;;5076612;28;19917;-64
2022/01/16 04:04:30;;;;;;;;;;;7.30;57.00;;;;;;5076313;28;19970;-63
2022/01/16 04:06:56;;;;;;;;;;;7.20;57.10;;;;;;5076521;28;20325;-63
2022/01/16 04:09:21;;;;;;;;;;;7.30;57.40;;;;;;5076451;28;20383;-63
2022/01/16 04:11:53;;;;;;;;;;;7.20;57.20;;;;;;5076179;28;19955;-66
2022/01/16 04:17:08;;;;;;;;;;;7.20;57.50;;;;;;5084727;28;19955;-64
2022/01/16 04:19:35;;;;;;;;;;;7.10;57.60;;;;;;5076319;28;19909;-63
2022/01/16 04:22:00;;;;;;;;;;;7.00;57.90;;;;;;5076236;28;20372;-64
2022/01/16 04:24:26;;;;;;;;;;;7.00;58.10;;;;;;5076111;28;19916;-64
2022/01/16 04:26:51;;;;;;;;;;;7.00;58.40;;;;;;5075958;28;19916;-62
2022/01/16 04:29:17;;;;;;;;;;;7.00;58.30;;;;;;5076106;28;19915;-63
2022/01/16 04:31:43;;;;;;;;;;;7.00;58.20;;;;;;5076156;28;19919;-63
2022/01/16 04:34:08;;;;;;;;;;;7.00;58.20;;;;;;5075695;28;19970;-64
2022/01/16 04:36:34;;;;;;;;;;;7.00;58.30;;;;;;5076030;28;19917;-63
2022/01/16 04:39:00;;;;;;;;;;;7.00;58.40;;;;;;5075912;28;20396;-63
2022/01/16 04:44:09;;;;;;;;;;;7.00;58.10;;;;;;5075928;28;20367;-62
2022/01/16 04:46:35;;;;;;;;;;;7.00;58.30;;;;;;5076103;28;19912;-62
2022/01/16 04:49:01;;;;;;;;;;;7.00;58.50;;;;;;5075838;28;19909;-64
2022/01/16 04:51:27;;;;;;;;;;;6.90;58.60;;;;;;5075574;28;19951;-62
2022/01/16 04:53:53;;;;;;;;;;;6.80;58.90;;;;;;5075677;28;19909;-63
2022/01/16 04:56:19;;;;;;;;;;;6.90;59.00;;;;;;5075532;28;19931;-62
2022/01/16 04:58:45;;;;;;;;;;;6.80;59.10;;;;;;5075681;28;19912;-64
2022/01/16 05:01:11;;;;;;;;;;;6.80;59.00;;;;;;5075473;28;19909;-64
2022/01/16 05:03:37;;;;;;;;;;;6.80;59.20;;;;;;5075191;28;20280;-63
2022/01/16 05:06:03;;;;;;;;;;;6.80;59.10;;;;;;5075597;28;20423;-64
2022/01/16 05:08:29;;;;;;;;;;;6.90;59.20;;;;;;5075139;28;19987;-64
2022/01/16 05:10:57;;;;;;;;;;;6.80;59.30;;;;;;5075463;28;19913;-66
2022/01/16 05:18:34;;;;;;;;;;;6.60;60.00;;;;;;5075461;28;20389;-64
2022/01/16 05:21:00;;;;;;;;;;;6.60;60.30;;;;;;5075011;28;19936;-65
2022/01/16 05:23:26;;;;;;;;;;;6.60;60.20;;;;;;5075039;28;19931;-63
2022/01/16 05:25:51;;;;;;;;;;;6.60;60.10;;;;;;5074954;28;19909;-63
2022/01/16 05:28:17;;;;;;;;;;;6.70;60.00;;;;;;5075004;28;19935;-66
2022/01/16 05:30:43;;;;;;;;;;;6.60;60.00;;;;;;5075096;28;19915;-64
2022/01/16 05:33:08;;;;;;;;;;;6.70;60.20;;;;;;5074767;28;20003;-63
2022/01/16 05:35:34;;;;;;;;;;;6.60;60.30;;;;;;5074570;28;20023;-64
2022/01/16 05:38:00;;;;;;;;;;;6.50;60.40;;;;;;5074767;28;20344;-65
2022/01/16 05:40:25;;;;;;;;;;;6.50;60.70;;;;;;5074885;28;19908;-65
2022/01/16 05:42:51;;;;;;;;;;;6.60;60.70;;;;;;5073474;28;19908;-65
2022/01/16 05:45:17;;;;;;;;;;;6.60;60.70;;;;;;5074546;28;19908;-64
2022/01/16 05:47:42;;;;;;;;;;;6.50;61.00;;;;;;5074729;28;19908;-62
2022/01/16 05:50:08;;;;;;;;;;;6.50;61.30;;;;;;5074684;28;19908;-63
2022/01/16 05:52:34;;;;;;;;;;;6.50;61.30;;;;;;5074397;28;20364;-63
2022/01/16 05:54:59;;;;;;;;;;;6.50;61.20;;;;;;5074378;28;20015;-64
2022/01/16 05:57:25;;;;;;;;;;;6.50;61.30;;;;;;5074402;28;20279;-68
2022/01/16 05:59:50;;;;;;;;;;;6.50;61.10;;;;;;5074665;28;19909;-68
2022/01/16 06:02:16;;;;;;;;;;;6.50;61.10;;;;;;5074406;28;19995;-69
2022/01/16 06:04:41;;;;;;;;;;;6.50;61.40;;;;;;5074118;28;19915;-67
2022/01/16 06:07:07;;;;;;;;;;;6.40;61.80;;;;;;5074364;28;19915;-67
2022/01/16 06:09:33;;;;;;;;;;;6.40;62.10;;;;;;5074133;28;19992;-68
2022/01/16 06:11:59;;;;;;;;;;;6.30;62.50;;;;;;5074230;28;20303;-69
2022/01/16 06:14:24;;;;;;;;;;;6.30;63.30;;;;;;5073710;28;20105;-65
2022/01/16 06:16:51;;;;;;;;;;;6.30;62.90;;;;;;5074111;28;19966;-65
2022/01/16 06:19:17;;;;;;;;;;;6.30;62.90;;;;;;5074087;28;19939;-63
2022/01/16 06:21:42;;;;;;;;;;;6.20;63.00;;;;;;5074010;28;19908;-65
2022/01/16 06:24:08;;;;;;;;;;;6.20;63.30;;;;;;5073940;28;19969;-64
2022/01/16 06:26:33;;;;;;;;;;;6.20;62.90;;;;;;5074006;28;19908;-63
2022/01/16 06:28:59;;;;;;;;;;;6.20;62.70;;;;;;5073718;28;19909;-65
2022/01/16 06:31:25;;;;;;;;;;;6.30;62.50;;;;;;5073571;28;19916;-63
2022/01/16 06:33:50;;;;;;;;;;;6.30;62.50;;;;;;5073616;28;19956;-65
2022/01/16 06:36:16;;;;;;;;;;;6.30;62.10;;;;;;5073490;28;20365;-64
2022/01/16 06:38:42;;;;;;;;;;;6.30;62.30;;;;;;5073760;28;19930;-63
2022/01/16 06:41:08;;;;;;;;;;;6.30;62.50;;;;;;5073500;28;19915;-63
2022/01/16 06:43:33;;;;;;;;;;;6.30;62.00;;;;;;5073728;28;20007;-64
2022/01/16 06:45:59;;;;;;;;;;;6.20;62.40;;;;;;5073570;28;19955;-64
2022/01/16 06:48:24;;;;;;;;;;;6.20;62.90;;;;;;5073279;28;19958;-63
2022/01/16 06:50:50;;;;;;;;;;;6.20;63.00;;;;;;5073478;28;20344;-63
2022/01/16 06:53:16;;;;;;;;;;;6.20;63.10;;;;;;5073272;28;20331;-66
2022/01/16 06:55:42;;;;;;;;;;;6.10;63.00;;;;;;5073397;28;19923;-68
2022/01/16 06:58:07;;;;;;;;;;;6.20;63.00;;;;;;5073437;28;19908;-65
2022/01/16 07:00:33;;;;;;;;;;;6.20;63.00;;;;;;5073215;28;19917;-66
2022/01/16 07:02:59;;;;;;;;;;;6.30;63.10;;;;;;5073430;28;19954;-67
2022/01/16 07:05:24;;;;;;;;;;;6.30;63.00;;;;;;5073098;28;19913;-65
2022/01/16 07:07:51;;;;;;;;;;;6.30;63.00;;;;;;5073113;28;19998;-64
2022/01/16 07:10:17;;;;;;;;;;;6.60;64.00;;;;;;5072608;28;19962;-71
2022/01/16 07:12:43;;;;;;;;;;;6.90;62.20;;;;;;5073090;28;19942;-64
2022/01/16 07:15:09;;;;;;;;;;;7.20;61.10;;;;;;5073030;28;20295;-66
2022/01/16 07:17:34;;;;;;;;;;;7.30;60.50;;;;;;5072895;28;19919;-67
2022/01/16 07:20:00;;;;;;;;;;;7.50;59.60;;;;;;5071864;28;19951;-66
2022/01/16 07:22:25;;;;;;;;;;;7.60;58.90;;;;;;5072937;28;19940;-68
2022/01/16 07:24:51;;;;;;;;;;;7.60;59.10;;;;;;5072691;28;19912;-71
2022/01/16 07:27:17;;;;;;;;;;;7.60;58.40;;;;;;5075994;28;19908;-68
2022/01/16 07:29:42;;;;;;;;;;;7.40;59.10;;;;;;5077219;28;19913;-70
2022/01/16 07:32:08;;;;;;;;;;;7.10;59.90;;;;;;5076921;28;20006;-68
2022/01/16 07:34:33;;;;;;;;;;;7.00;61.20;;;;;;5076712;28;20335;-69
2022/01/16 07:36:59;;;;;;;;;;;7.00;61.80;;;;;;5076883;28;20256;-68
2022/01/16 07:39:24;;;;;;;;;;;7.00;62.00;;;;;;5076938;28;19919;-69
2022/01/16 07:41:50;;;;;;;;;;;7.00;61.90;;;;;;5076844;28;19909;-65
2022/01/16 07:44:15;;;;;;;;;;;7.10;61.80;;;;;;5076465;28;19983;-67
2022/01/16 07:46:41;;;;;;;;;;;7.10;61.40;;;;;;5076650;28;19909;-68
2022/01/16 07:49:07;;;;;;;;;;;7.10;61.40;;;;;;5076365;28;19995;-66
2022/01/16 07:51:32;;;;;;;;;;;7.10;61.60;;;;;;5076036;28;19923;-64
2022/01/16 07:53:58;;;;;;;;;;;7.30;61.50;;;;;;5076616;28;19908;-67
2022/01/16 07:56:24;;;;;;;;;;;7.40;61.70;;;;;;5076354;28;19920;-68
2022/01/16 07:58:49;;;;;;;;;;;7.60;61.10;;;;;;5076451;28;19908;-66
2022/01/16 08:01:15;;;;;;;;;;;7.70;60.60;;;;;;5076307;28;19977;-64
2022/01/16 08:03:41;;;;;;;;;;;7.90;60.50;;;;;;5076134;28;20323;-66
2022/01/16 08:06:06;;;;;;;;;;;8.10;60.20;;;;;;5076440;28;19919;-66
2022/01/16 08:08:32;;;;;;;;;;;8.20;59.90;;;;;;5076005;28;20007;-71
2022/01/16 08:10:57;;;;;;;;;;;8.40;59.70;;;;;;5076249;28;20312;-69
2022/01/16 08:13:23;;;;;;;;;;;8.50;59.30;;;;;;5075987;28;19908;-67
2022/01/16 08:15:49;;;;;;;;;;;8.70;58.80;;;;;;5076081;28;19960;-67
2022/01/16 08:18:14;;;;;;;;;;;8.80;58.20;;;;;;5075939;28;19916;-65
2022/01/16 08:20:40;;;;;;;;;;;9.00;57.70;;;;;;5076793;28;19951;-63
2022/01/16 08:23:05;;;;;;;;;;;9.20;57.80;;;;;;5095537;28;19941;-66
2022/01/16 08:25:31;;;;;;;;;;;9.30;57.90;;;;;;5099179;28;20007;-66
2022/01/16 08:27:57;;;;;;;;;;;9.30;57.90;;;;;;5093426;28;19912;-61
2022/01/16 08:30:23;;;;;;;;;;;9.30;57.10;;;;;;5098921;28;19911;-64
2022/01/16 08:32:48;;;;;;;;;;;9.40;57.20;;;;;;5095771;28;19954;-61
2022/01/16 08:35:14;;;;;;;;;;;9.50;58.00;;;;;;5095983;28;19916;-64
2022/01/16 08:37:39;;;;;;;;;;;9.60;57.30;;;;;;5101643;28;20233;-69
2022/01/16 08:40:05;;;;;;;;;;;9.70;57.00;;;;;;5107098;28;19916;-68
2022/01/16 08:42:31;;;;;;;;;;;9.80;56.80;;;;;;5097660;28;19908;-68
2022/01/16 08:44:57;;;;;;;;;;;9.80;56.30;;;;;;5095744;28;20281;-64
2022/01/16 08:47:22;;;;;;;;;;;9.90;56.40;;;;;;5104767;28;20382;-66
2022/01/16 08:49:48;;;;;;;;;;;10.00;57.00;;;;;;5085233;28;20345;-65
2022/01/16 08:52:14;;;;;;;;;;;10.00;57.00;;;;;;5097879;28;19942;-64
2022/01/16 08:54:39;;;;;;;;;;;10.10;56.80;;;;;;5095106;28;20036;-63
2022/01/16 08:57:05;;;;;;;;;;;10.20;56.30;;;;;;5095569;28;20355;-62
2022/01/16 08:59:31;;;;;;;;;;;10.20;55.90;;;;;;5102378;28;20316;-65
2022/01/16 09:01:56;;;;;;;;;;;10.30;55.60;;;;;;5088690;28;19909;-65
2022/01/16 09:04:22;;;;;;;;;;;10.30;55.70;;;;;;5094936;28;20050;-66
2022/01/16 09:06:48;;;;;;;;;;;10.40;55.50;;;;;;5096328;28;19912;-63
2022/01/16 09:09:13;;;;;;;;;;;10.40;55.60;;;;;;5095135;28;19908;-62
2022/01/16 09:11:39;;;;;;;;;;;10.40;55.70;;;;;;5095368;28;19987;-62
2022/01/16 09:14:04;;;;;;;;;;;10.50;55.80;;;;;;5076703;28;19923;-63
2022/01/16 09:16:31;;;;;;;;;;;10.50;55.40;;;;;;5074480;28;19982;-65
2022/01/16 09:18:56;;;;;;;;;;;10.40;55.50;;;;;;5074793;28;19909;-63
2022/01/16 09:21:22;;;;;;;;;;;10.50;54.90;;;;;;5080067;28;20002;-64
2022/01/16 09:23:49;;;;;;;;;;;10.40;54.80;;;;;;5074591;28;20356;-62
2022/01/16 09:26:14;;;;;;;;;;;10.60;55.10;;;;;;5074708;28;19915;-63
2022/01/16 09:28:40;;;;;;;;;;;10.60;55.10;;;;;;5074521;28;19908;-63
2022/01/16 09:31:06;;;;;;;;;;;10.80;54.50;;;;;;5074256;28;19961;-64
2022/01/16 09:33:32;;;;;;;;;;;11.00;54.30;;;;;;5075943;28;19924;-62
2022/01/16 09:35:57;;;;;;;;;;;11.00;54.40;;;;;;5080258;28;19916;-63
2022/01/16 09:38:23;;;;;;;;;;;11.10;54.40;;;;;;5090668;28;19986;-64
2022/01/16 09:40:49;;;;;;;;;;;11.20;54.30;;;;;;5085175;28;19912;-66
2022/01/16 09:43:16;;;;;;;;;;;11.30;54.00;;;;;;5086390;28;19912;-69
2022/01/16 09:45:42;;;;;;;;;;;11.30;53.70;;;;;;5088413;28;19958;-66
2022/01/16 09:48:07;;;;;;;;;;;11.40;53.00;;;;;;5078019;28;19956;-66
2022/01/16 09:50:33;;;;;;;;;;;11.50;52.80;;;;;;5074238;28;20021;-66
2022/01/16 09:52:59;;;;;;;;;;;11.60;52.40;;;;;;5074219;28;19909;-64
2022/01/16 09:55:25;;;;;;;;;;;11.80;52.10;;;;;;5077074;28;19973;-62
2022/01/16 09:57:53;;;;;;;;;;;11.80;51.00;;;;;;5074255;28;19917;-63
2022/01/16 10:00:20;;;;;;;;;;;11.90;51.10;;;;;;5074111;28;20322;-66
2022/01/16 10:02:46;;;;;;;;;;;12.00;51.60;;;;;;5074334;28;19955;-65
2022/01/16 10:05:26;;;;;;;;;;;12.10;51.50;;;;;;5076993;28;19947;-64
2022/01/16 10:07:56;;;;;;;;;;;12.20;51.60;;;;;;5081956;28;20066;-67
2022/01/16 10:10:54;;;;;;;;;;;12.40;50.60;;;;;;5078506;28;19919;-64
2022/01/16 10:13:38;;;;;;;;;;;12.30;48.80;;;;;;5074899;28;19912;-64
2022/01/16 10:16:03;;;;;;;;;;;12.50;49.70;;;;;;5092058;28;19959;-66
2022/01/16 10:18:34;;;;;;;;;;;12.60;49.10;;;;;;5093848;28;20328;-66
2022/01/16 10:21:00;;;;;;;;;;;12.70;49.10;;;;;;5084949;28;19916;-65
2022/01/16 10:23:25;;;;;;;;;;;12.80;48.70;;;;;;5090085;28;20374;-62
2022/01/16 10:25:51;;;;;;;;;;;12.60;48.80;;;;;;5104817;28;19908;-62
2022/01/16 10:28:22;;;;;;;;;;;12.60;49.30;;;;;;5109650;28;19919;-63
2022/01/16 10:30:51;;;;;;;;;;;12.70;49.60;;;;;;5104972;28;19913;-63
2022/01/16 10:33:19;;;;;;;;;;;12.80;49.30;;;;;;5102365;28;20016;-63
2022/01/16 10:35:47;;;;;;;;;;;12.80;49.00;;;;;;5100854;28;20484;-67
2022/01/16 10:38:20;;;;;;;;;;;12.80;48.90;;;;;;5094213;28;19912;-64
2022/01/16 10:40:50;;;;;;;;;;;12.80;49.00;;;;;;5094183;28;19954;-65
2022/01/16 10:43:21;;;;;;;;;;;13.00;49.10;;;;;;5104254;28;19912;-65
2022/01/16 10:45:51;;;;;;;;;;;13.00;48.40;;;;;;5102990;28;19912;-62
2022/01/16 10:48:21;;;;;;;;;;;12.80;47.80;;;;;;5077749;28;19912;-65
2022/01/16 10:50:47;;;;;;;;;;;12.50;48.50;;;;;;5102412;28;20413;-64
2022/01/16 10:53:15;;;;;;;;;;;12.60;48.90;;;;;;5112841;28;19943;-64
2022/01/16 10:55:47;;;;;;;;;;;12.60;48.90;;;;;;5113932;28;19923;-67
2022/01/16 10:58:20;;;;;;;;;;;12.70;47.90;;;;;;5091148;28;19912;-64
2022/01/16 11:00:51;;;;;;;;;;;12.90;47.50;;;;;;5071682;28;19916;-66
2022/01/16 11:03:18;;;;;;;;;;;12.60;47.80;;;;;;5073143;28;19912;-65
2022/01/16 11:05:44;;;;;;;;;;;12.40;48.80;;;;;;5072050;28;19908;-64
2022/01/16 11:08:14;;;;;;;;;;;12.50;49.10;;;;;;5073096;28;19908;-62
2022/01/16 11:10:41;;;;;;;;;;;12.50;49.10;;;;;;5073306;28;19908;-63
2022/01/16 11:13:08;;;;;;;;;;;12.40;49.30;;;;;;5073294;28;20360;-63
2022/01/16 11:15:34;;;;;;;;;;;12.50;50.00;;;;;;5071581;28;19916;-62
2022/01/16 11:18:01;;;;;;;;;;;12.80;49.60;;;;;;5073121;28;19961;-62
2022/01/16 11:20:29;;;;;;;;;;;13.10;48.20;;;;;;5073056;28;20247;-63
2022/01/16 11:25:50;;;;;;;;;;;13.50;47.20;;;;;;5070891;28;19909;-64
2022/01/16 11:28:18;;;;;;;;;;;13.60;46.60;;;;;;5072508;28;19920;-64
2022/01/16 11:30:48;;;;;;;;;;;13.70;46.30;;;;;;5072741;28;19950;-65
2022/01/16 11:33:14;;;;;;;;;;;13.80;46.20;;;;;;5075111;28;20020;-64
2022/01/16 11:35:41;;;;;;;;;;;13.90;46.70;;;;;;5072887;28;20015;-64
2022/01/16 11:38:08;;;;;;;;;;;13.90;46.00;;;;;;5072607;28;19908;-62
2022/01/16 11:40:52;;;;;;;;;;;14.00;46.30;;;;;;5072643;28;19992;-66
2022/01/16 11:43:19;;;;;;;;;;;13.90;46.10;;;;;;5089520;28;19909;-64
2022/01/16 11:45:49;;;;;;;;;;;14.00;46.60;;;;;;5074420;28;19982;-64
2022/01/16 11:48:35;;;;;;;;;;;14.10;46.50;;;;;;5075214;28;20394;-66
2022/01/16 11:51:04;;;;;;;;;;;14.20;46.10;;;;;;5073030;28;19916;-65
2022/01/16 11:53:48;;;;;;;;;;;14.30;46.20;;;;;;5072739;28;19908;-64
2022/01/16 11:56:32;;;;;;;;;;;14.10;45.80;;;;;;5078184;28;19920;-64
2022/01/16 11:59:11;;;;;;;;;;;14.10;46.60;;;;;;5092885;28;19908;-63
2022/01/16 12:01:55;;;;;;;;;;;13.70;47.10;;;;;;5093162;28;19969;-60
2022/01/16 12:04:30;;;;;;;;;;;13.60;48.50;;;;;;5092836;28;19915;-62
2022/01/16 12:06:59;;;;;;;;;;;13.20;49.50;;;;;;5092879;28;19916;-64
2022/01/16 12:09:33;;;;;;;;;;;12.90;51.20;;;;;;5092829;28;19908;-61
2022/01/16 12:11:59;;;;;;;;;;;13.10;51.40;;;;;;5093116;28;20319;-65
2022/01/16 12:14:45;;;;;;;;;;;13.20;51.00;;;;;;5095967;28;19912;-66
2022/01/16 12:17:27;;;;;;;;;;;13.40;51.00;;;;;;5085113;28;19914;-65
2022/01/16 12:19:53;;;;;;;;;;;13.60;50.30;;;;;;5096510;28;19908;-63
2022/01/16 12:22:44;;;;;;;;;;;13.70;50.20;;;;;;5095177;28;20385;-65
2022/01/16 12:25:16;;;;;;;;;;;13.90;49.90;;;;;;5095235;28;20395;-66
2022/01/16 12:27:44;;;;;;;;;;;13.90;49.70;;;;;;5096669;28;19908;-65
2022/01/16 12:30:28;;;;;;;;;;;13.80;49.80;;;;;;5096252;28;20292;-63
2022/01/16 12:32:55;;;;;;;;;;;13.60;51.50;;;;;;5096120;28;19972;-62
2022/01/16 12:35:38;;;;;;;;;;;13.30;53.00;;;;;;5096121;28;19927;-64
2022/01/16 12:38:14;;;;;;;;;;;13.30;53.80;;;;;;5096288;28;20386;-63
2022/01/16 12:40:44;;;;;;;;;;;13.40;54.00;;;;;;5096174;28;19919;-63
2022/01/16 12:43:15;;;;;;;;;;;13.40;54.20;;;;;;5096877;28;19908;-65
2022/01/16 12:45:41;;;;;;;;;;;13.10;55.10;;;;;;5096172;28;19915;-64
2022/01/16 12:48:07;;;;;;;;;;;12.70;55.60;;;;;;5095971;28;19951;-66
2022/01/16 12:50:33;;;;;;;;;;;12.70;56.00;;;;;;5096013;28;20355;-65
2022/01/16 12:52:59;;;;;;;;;;;12.90;55.20;;;;;;5095997;28;20382;-64
2022/01/16 12:55:25;;;;;;;;;;;13.10;54.80;;;;;;5095600;28;19932;-64
2022/01/16 12:57:51;;;;;;;;;;;13.30;54.80;;;;;;5095763;28;20374;-66
2022/01/16 13:00:17;;;;;;;;;;;13.20;54.00;;;;;;5096047;28;19994;-63
2022/01/16 13:02:42;;;;;;;;;;;13.20;54.70;;;;;;5095662;28;19908;-64
2022/01/16 13:05:08;;;;;;;;;;;12.70;56.20;;;;;;5095607;28;19908;-65
2022/01/16 13:07:34;;;;;;;;;;;12.50;59.00;;;;;;5095463;28;19912;-64
2022/01/16 13:10:00;;;;;;;;;;;12.50;59.40;;;;;;5095311;28;20305;-63
2022/01/16 13:12:26;;;;;;;;;;;12.50;59.70;;;;;;5095911;28;19919;-67
2022/01/16 13:14:52;;;;;;;;;;;12.70;59.60;;;;;;5095259;28;19916;-64
2022/01/16 13:17:18;;;;;;;;;;;12.70;59.80;;;;;;5095517;28;19931;-64
2022/01/16 13:22:12;;;;;;;;;;;13.00;59.80;;;;;;5095187;28;19908;-65
2022/01/16 13:24:46;;;;;;;;;;;13.00;59.90;;;;;;5093696;28;19915;-65
2022/01/16 13:27:29;;;;;;;;;;;13.00;60.10;;;;;;5094859;28;19908;-65
2022/01/16 13:29:56;;;;;;;;;;;13.00;59.80;;;;;;5095168;28;19908;-65
2022/01/16 13:32:26;;;;;;;;;;;12.90;60.00;;;;;;5094738;28;19928;-64
2022/01/16 13:34:54;;;;;;;;;;;13.00;60.20;;;;;;5094738;28;20001;-64
2022/01/16 13:37:26;;;;;;;;;;;12.60;61.80;;;;;;5095077;28;19912;-64
2022/01/16 13:39:58;;;;;;;;;;;12.60;62.40;;;;;;5095212;28;20344;-64
2022/01/16 13:45:20;;;;;;;;;;;12.40;62.20;;;;;;5094989;28;20344;-64
2022/01/16 13:47:49;;;;;;;;;;;12.40;62.20;;;;;;5094827;28;19919;-66
2022/01/16 13:50:14;;;;;;;;;;;12.30;62.10;;;;;;5094789;28;20006;-65
2022/01/16 13:52:49;;;;;;;;;;;12.30;62.30;;;;;;5094528;28;20792;-65
2022/01/16 13:55:15;;;;;;;;;;;12.20;64.30;;;;;;5094485;28;19923;-65
2022/01/16 13:57:40;;;;;;;;;;;12.10;65.00;;;;;;5094339;28;20339;-64
2022/01/16 14:00:07;;;;;;;;;;;12.20;64.60;;;;;;5095039;28;19912;-65
2022/01/16 14:02:34;;;;;;;;;;;12.30;65.20;;;;;;5094549;28;19915;-64
2022/01/16 14:05:00;;;;;;;;;;;12.30;66.00;;;;;;5094357;28;19946;-67
2022/01/16 14:07:25;;;;;;;;;;;12.10;67.20;;;;;;5094440;28;19912;-65
2022/01/16 14:09:54;;;;;;;;;;;12.10;67.10;;;;;;5094519;28;19908;-66
2022/01/16 14:12:20;;;;;;;;;;;12.10;67.00;;;;;;5094534;28;19908;-68
2022/01/16 14:14:48;;;;;;;;;;;12.10;67.40;;;;;;5094660;28;20030;-67
2022/01/16 14:22:10;;;;;;;;;;;11.80;67.40;;;;;;5098566;28;19919;-65
2022/01/16 14:24:37;;;;;;;;;;;11.70;68.00;;;;;;5103565;28;19908;-65
2022/01/16 14:27:04;;;;;;;;;;;11.60;68.90;;;;;;5103362;28;19908;-66
2022/01/16 14:29:30;;;;;;;;;;;11.50;68.90;;;;;;5102158;28;19908;-67
2022/01/16 14:31:58;;;;;;;;;;;11.50;69.10;;;;;;5104231;28;19930;-67
2022/01/16 14:34:24;;;;;;;;;;;11.50;69.40;;;;;;5095721;28;20351;-64
2022/01/16 14:36:50;;;;;;;;;;;11.50;69.60;;;;;;5094503;28;19915;-64
2022/01/16 14:39:15;;;;;;;;;;;11.40;69.50;;;;;;5094351;28;19912;-64
2022/01/16 14:41:47;;;;;;;;;;;11.30;69.60;;;;;;5094130;28;19957;-65
2022/01/16 14:44:13;;;;;;;;;;;11.30;69.60;;;;;;5093092;28;19992;-64
2022/01/16 14:46:43;;;;;;;;;;;11.20;69.70;;;;;;5093935;28;19935;-64
2022/01/16 14:49:08;;;;;;;;;;;11.20;69.80;;;;;;5094546;28;19908;-64
2022/01/16 14:51:34;;;;;;;;;;;11.10;69.80;;;;;;5093900;28;19908;-65
2022/01/16 14:54:00;;;;;;;;;;;11.00;70.10;;;;;;5093871;28;19944;-65
2022/01/16 14:56:25;;;;;;;;;;;10.90;70.10;;;;;;5094070;28;20372;-63
2022/01/16 14:58:51;;;;;;;;;;;10.90;70.00;;;;;;5094072;28;19919;-63
2022/01/16 15:01:16;;;;;;;;;;;10.90;69.80;;;;;;5093828;28;19915;-63
2022/01/16 15:03:43;;;;;;;;;;;10.80;70.00;;;;;;5093422;28;19916;-65
2022/01/16 15:06:08;;;;;;;;;;;10.80;70.20;;;;;;5093541;28;19953;-64
2022/01/16 15:08:35;;;;;;;;;;;10.70;70.20;;;;;;5093436;28;19912;-63
2022/01/16 15:11:01;;;;;;;;;;;10.60;70.30;;;;;;5093558;28;20062;-63
2022/01/16 15:13:27;;;;;;;;;;;10.70;71.10;;;;;;5092192;28;19978;-66
2022/01/16 15:15:52;;;;;;;;;;;10.70;70.50;;;;;;5093623;28;20363;-64
2022/01/16 15:18:20;;;;;;;;;;;10.60;70.30;;;;;;5092224;28;19953;-63
2022/01/16 15:20:47;;;;;;;;;;;10.60;70.80;;;;;;5093462;28;20363;-63
2022/01/16 15:23:13;;;;;;;;;;;10.50;70.80;;;;;;5091654;28;20390;-64